Time;durP1;ratioP1;P1;durP2;ratioP2;P2;SDS_P1;SDS_P2;PMS_P1;PMS_P2;Temp;Humidity;BMP_temperature;BMP_pressure;BME280_temperature;BME280_humidity;BME280_pressure;Samples;Min_cycle;Max_cycle;Signal;HPM_P1;HPM_P2
2023/06/25 00:01:01;;;;;;;18.35;9.02;;;;;;;;;;10493865;22;20057;-91
2023/06/25 00:05:24;;;;;;;16.33;8.40;;;;;;;;;;10493774;22;20023;-90
2023/06/25 00:09:27;;;;;;;13.88;7.50;;;;;;;;;;10493775;22;20053;-90
2023/06/25 00:13:32;;;;;;;14.52;7.72;;;;;;;;;;10493948;22;20125;-90
2023/06/25 00:17:35;;;;;;;17.00;7.88;;;;;;;;;;10494572;22;20101;-91
2023/06/25 00:21:38;;;;;;;16.20;7.53;;;;;;;;;;10494110;22;20498;-89
2023/06/25 00:25:41;;;;;;;17.83;7.63;;;;;;;;;;10492021;22;20530;-91
2023/06/25 00:29:46;;;;;;;15.10;8.00;;;;;;;;;;10492816;22;20072;-90
2023/06/25 00:33:49;;;;;;;16.35;7.70;;;;;;;;;;10493182;22;20011;-89
2023/06/25 00:37:56;;;;;;;15.27;7.47;;;;;;;;;;10493587;22;20025;-88
2023/06/25 00:42:02;;;;;;;17.75;8.32;;;;;;;;;;10501107;22;20501;-88
2023/06/25 00:46:06;;;;;;;15.15;8.55;;;;;;;;;;10510302;22;20022;-90
2023/06/25 00:50:12;;;;;;;17.02;7.55;;;;;;;;;;10492752;22;20086;-88
2023/06/25 00:54:15;;;;;;;15.70;8.18;;;;;;;;;;10510238;22;20042;-88
2023/06/25 00:58:22;;;;;;;20.20;8.85;;;;;;;;;;10493076;22;20038;-90
2023/06/25 01:02:32;;;;;;;15.23;8.10;;;;;;;;;;10510438;22;20037;-89
2023/06/25 01:06:40;;;;;;;15.98;7.18;;;;;;;;;;10510132;22;20023;-88
2023/06/25 01:10:45;;;;;;;16.40;7.68;;;;;;;;;;10510319;22;20087;-89
2023/06/25 01:14:48;;;;;;;14.57;7.78;;;;;;;;;;10492917;22;20079;-91
2023/06/25 01:18:53;;;;;;;18.48;8.18;;;;;;;;;;10492345;22;20022;-89
2023/06/25 01:22:58;;;;;;;14.82;8.57;;;;;;;;;;10492740;22;20060;-92
2023/06/25 01:27:03;;;;;;;16.35;8.35;;;;;;;;;;10510470;22;20601;-92
2023/06/25 01:31:07;;;;;;;13.80;7.70;;;;;;;;;;10510316;22;20019;-89
2023/06/25 01:35:11;;;;;;;13.68;7.65;;;;;;;;;;10492558;22;20018;-90
2023/06/25 01:39:16;;;;;;;13.32;7.47;;;;;;;;;;10493420;22;20094;-90
2023/06/25 01:43:19;;;;;;;16.08;8.07;;;;;;;;;;10492989;22;20443;-89
2023/06/25 01:47:22;;;;;;;16.52;7.38;;;;;;;;;;10492936;22;20025;-89
2023/06/25 01:51:26;;;;;;;15.77;7.57;;;;;;;;;;10493083;22;20102;-90
2023/06/25 01:55:30;;;;;;;15.48;7.85;;;;;;;;;;10493063;22;20051;-90
2023/06/25 01:59:34;;;;;;;16.65;7.63;;;;;;;;;;10493076;22;20487;-90
2023/06/25 02:03:36;;;;;;;14.70;7.38;;;;;;;;;;10465234;22;20065;-89
2023/06/25 02:07:39;;;;;;;13.43;7.25;;;;;;;;;;10492730;22;20046;-91
2023/06/25 02:11:45;;;;;;;21.80;8.57;;;;;;;;;;10492907;22;20092;-91
2023/06/25 02:15:48;;;;;;;22.05;7.63;;;;;;;;;;10509618;22;20461;-92
2023/06/25 02:19:51;;;;;;;14.85;7.55;;;;;;;;;;10492270;22;20128;-91
2023/06/25 02:23:54;;;;;;;14.38;7.88;;;;;;;;;;10464330;22;20042;-89
2023/06/25 02:27:58;;;;;;;15.88;8.25;;;;;;;;;;10491861;22;20093;-89
2023/06/25 02:32:01;;;;;;;15.70;8.02;;;;;;;;;;10491805;22;20391;-91
2023/06/25 02:36:04;;;;;;;15.00;7.85;;;;;;;;;;10492237;22;20042;-90
2023/06/25 02:40:09;;;;;;;17.13;7.65;;;;;;;;;;10491700;22;20095;-90
2023/06/25 02:44:13;;;;;;;16.92;8.43;;;;;;;;;;10509270;22;20102;-89
2023/06/25 02:48:16;;;;;;;14.55;7.57;;;;;;;;;;10492084;22;20094;-90
2023/06/25 02:52:19;;;;;;;14.40;7.72;;;;;;;;;;10494825;22;20342;-91
2023/06/25 02:56:22;;;;;;;16.70;8.18;;;;;;;;;;10491037;22;20023;-89
2023/06/25 03:00:26;;;;;;;15.30;7.50;;;;;;;;;;10490762;22;20054;-89
2023/06/25 03:04:29;;;;;;;13.80;7.47;;;;;;;;;;10491585;22;20536;-89
2023/06/25 03:08:32;;;;;;;12.60;7.20;;;;;;;;;;10491866;22;20085;-88
2023/06/25 03:12:34;;;;;;;13.07;6.85;;;;;;;;;;10491818;22;20097;-88
2023/06/25 03:16:39;;;;;;;12.27;6.75;;;;;;;;;;10491687;22;20039;-89
2023/06/25 03:20:42;;;;;;;11.73;6.90;;;;;;;;;;10491329;22;20126;-89
2023/06/25 03:24:44;;;;;;;11.93;6.55;;;;;;;;;;10463995;22;20026;-91
2023/06/25 03:28:47;;;;;;;13.38;6.88;;;;;;;;;;10491993;22;20085;-89
2023/06/25 03:32:52;;;;;;;13.68;6.32;;;;;;;;;;10491501;22;20400;-89
2023/06/25 03:36:55;;;;;;;12.73;6.22;;;;;;;;;;10491455;22;20424;-89
2023/06/25 03:40:57;;;;;;;13.55;7.18;;;;;;;;;;10491494;22;20026;-89
2023/06/25 03:45:00;;;;;;;9.57;6.03;;;;;;;;;;10491609;22;20430;-89
2023/06/25 03:49:05;;;;;;;13.73;7.18;;;;;;;;;;10491540;22;20018;-90
2023/06/25 03:53:08;;;;;;;10.57;6.78;;;;;;;;;;10491101;22;20014;-89
2023/06/25 03:57:11;;;;;;;13.40;6.55;;;;;;;;;;10491485;22;20098;-90
2023/06/25 04:01:14;;;;;;;11.02;7.18;;;;;;;;;;10491227;22;20038;-91
2023/06/25 04:05:18;;;;;;;10.48;7.13;;;;;;;;;;10491812;22;20400;-91
2023/06/25 04:09:21;;;;;;;12.00;7.22;;;;;;;;;;10494566;22;20057;-90
2023/06/25 04:13:24;;;;;;;15.65;7.45;;;;;;;;;;10494702;22;20060;-91
2023/06/25 04:17:27;;;;;;;14.20;6.13;;;;;;;;;;10494037;22;20019;-90
2023/06/25 04:21:31;;;;;;;9.30;5.95;;;;;;;;;;10494741;22;20369;-90
2023/06/25 04:25:34;;;;;;;9.27;5.97;;;;;;;;;;10493603;22;20042;-90
2023/06/25 04:29:37;;;;;;;9.65;6.32;;;;;;;;;;10493717;22;20014;-89
2023/06/25 04:33:41;;;;;;;12.95;7.07;;;;;;;;;;10492597;22;20050;-89
2023/06/25 04:37:46;;;;;;;14.90;7.78;;;;;;;;;;10492855;22;20049;-90
2023/06/25 04:41:48;;;;;;;11.18;7.30;;;;;;;;;;10492797;22;20094;-89
2023/06/25 04:45:51;;;;;;;12.10;6.25;;;;;;;;;;10493046;22;20505;-89
2023/06/25 04:49:54;;;;;;;13.85;8.55;;;;;;;;;;10493027;22;20014;-88
2023/06/25 04:53:59;;;;;;;14.60;8.40;;;;;;;;;;10493277;22;20022;-88
2023/06/25 04:58:02;;;;;;;10.85;7.70;;;;;;;;;;10492747;22;20038;-88
2023/06/25 05:02:06;;;;;;;11.10;8.23;;;;;;;;;;10491679;22;20018;-89
2023/06/25 05:06:12;;;;;;;12.75;7.75;;;;;;;;;;10492355;22;20011;-90
2023/06/25 05:10:17;;;;;;;16.25;9.40;;;;;;;;;;10465602;22;20025;-88
2023/06/25 05:14:20;;;;;;;13.93;9.38;;;;;;;;;;10493087;22;20436;-90
2023/06/25 05:18:25;;;;;;;15.75;10.02;;;;;;;;;;10492602;22;20080;-90
2023/06/25 05:22:29;;;;;;;16.10;9.93;;;;;;;;;;10510302;22;20380;-89
2023/06/25 05:26:33;;;;;;;15.68;9.27;;;;;;;;;;10493031;22;20532;-91
2023/06/25 05:30:39;;;;;;;17.38;9.85;;;;;;;;;;10492564;22;20089;-90
2023/06/25 05:34:41;;;;;;;14.40;9.00;;;;;;;;;;10509767;22;20520;-89
2023/06/25 05:38:44;;;;;;;11.77;9.10;;;;;;;;;;10492330;22;20022;-89
2023/06/25 05:42:49;;;;;;;15.02;9.27;;;;;;;;;;10492080;22;20092;-90
2023/06/25 05:46:52;;;;;;;17.40;9.25;;;;;;;;;;10492065;22;20383;-89
2023/06/25 05:50:55;;;;;;;11.80;9.55;;;;;;;;;;10492465;22;20011;-89
2023/06/25 05:54:58;;;;;;;12.63;9.35;;;;;;;;;;10492083;22;20496;-89
2023/06/25 05:59:02;;;;;;;12.85;8.90;;;;;;;;;;10492143;22;20050;-90
2023/06/25 06:03:05;;;;;;;12.60;9.18;;;;;;;;;;10491928;22;20047;-89
2023/06/25 06:07:08;;;;;;;13.75;8.60;;;;;;;;;;10491561;22;20019;-89
2023/06/25 06:11:11;;;;;;;13.27;9.23;;;;;;;;;;10491986;22;20522;-90
2023/06/25 06:15:15;;;;;;;12.45;8.48;;;;;;;;;;10464622;22;20023;-93
2023/06/25 06:19:18;;;;;;;12.57;7.75;;;;;;;;;;10491290;22;20781;-91
2023/06/25 06:23:24;;;;;;;12.20;8.45;;;;;;;;;;10486939;22;20022;-89
2023/06/25 06:27:29;;;;;;;11.25;8.52;;;;;;;;;;10502752;22;20026;-90
2023/06/25 06:31:34;;;;;;;10.20;7.90;;;;;;;;;;10503630;22;20105;-90
2023/06/25 06:35:37;;;;;;;10.90;7.80;;;;;;;;;;10485559;22;20015;-91
2023/06/25 06:39:40;;;;;;;10.85;7.30;;;;;;;;;;10485409;22;20144;-89
2023/06/25 06:43:44;;;;;;;11.65;7.85;;;;;;;;;;10485119;22;20391;-89
2023/06/25 06:47:49;;;;;;;9.05;7.13;;;;;;;;;;10485376;22;20019;-88
2023/06/25 06:51:53;;;;;;;9.18;7.00;;;;;;;;;;10484838;22;20053;-89
2023/06/25 06:55:56;;;;;;;8.02;6.40;;;;;;;;;;10486024;22;20332;-89
2023/06/25 07:00:01;;;;;;;8.68;6.63;;;;;;;;;;10486072;22;20060;-88
2023/06/25 07:04:07;;;;;;;9.88;6.80;;;;;;;;;;10486351;22;20043;-88
2023/06/25 07:08:16;;;;;;;9.77;6.75;;;;;;;;;;10503324;22;20022;-90
2023/06/25 07:12:19;;;;;;;10.32;7.00;;;;;;;;;;10486829;22;20114;-88
2023/06/25 07:16:22;;;;;;;10.77;7.07;;;;;;;;;;10485828;22;20019;-91
2023/06/25 07:20:39;;;;;;;11.73;6.22;;;;;;;;;;10503421;22;20014;-93
2023/06/25 07:24:44;;;;;;;11.52;6.72;;;;;;;;;;10459121;22;20029;-89
2023/06/25 07:28:54;;;;;;;9.50;6.32;;;;;;;;;;10484914;22;20572;-89
2023/06/25 07:33:23;;;;;;;9.60;6.00;;;;;;;;;;10457985;22;20427;-91
2023/06/25 07:37:29;;;;;;;8.35;5.72;;;;;;;;;;10495253;22;20019;-89
2023/06/25 07:41:34;;;;;;;8.45;6.43;;;;;;;;;;10474483;22;20046;-89
2023/06/25 07:45:38;;;;;;;10.27;5.50;;;;;;;;;;10480696;22;20101;-91
2023/06/25 07:49:52;;;;;;;7.93;5.85;;;;;;;;;;10517008;22;20029;-90
2023/06/25 07:54:04;;;;;;;9.90;6.43;;;;;;;;;;10534626;22;20346;-94
2023/06/25 07:58:10;;;;;;;8.10;5.85;;;;;;;;;;10530756;22;20076;-93
2023/06/25 08:06:36;;;;;;;9.35;5.97;;;;;;;;;;10508078;22;20019;-90
2023/06/25 08:10:54;;;;;;;8.98;5.72;;;;;;;;;;10500014;22;20022;-91
2023/06/25 08:15:01;;;;;;;7.95;5.30;;;;;;;;;;10452955;22;20794;-92
2023/06/25 08:19:04;;;;;;;7.07;5.72;;;;;;;;;;10496279;22;20044;-91
2023/06/25 08:23:09;;;;;;;7.30;5.35;;;;;;;;;;10475107;22;20488;-90
2023/06/25 08:27:16;;;;;;;8.38;5.18;;;;;;;;;;10474384;22;20022;-92
2023/06/25 08:31:20;;;;;;;7.43;4.78;;;;;;;;;;10520239;22;20522;-91
2023/06/25 08:35:30;;;;;;;6.80;5.00;;;;;;;;;;10490579;22;20018;-91
2023/06/25 08:39:40;;;;;;;8.07;5.05;;;;;;;;;;10515485;22;20199;-91
2023/06/25 08:44:23;;;;;;;6.65;5.07;;;;;;;;;;10486520;22;20054;-90
2023/06/25 08:48:44;;;;;;;8.82;4.82;;;;;;;;;;10432520;22;20023;-91
2023/06/25 08:58:20;;;;;;;7.70;5.63;;;;;;;;;;10432276;22;20033;-90
2023/06/25 09:02:32;;;;;;;8.40;5.45;;;;;;;;;;10467851;22;20044;-89
2023/06/25 09:06:50;;;;;;;8.55;5.35;;;;;;;;;;10494991;22;20023;-90
2023/06/25 09:11:24;;;;;;;7.50;4.78;;;;;;;;;;10463393;22;20015;-89
2023/06/25 09:15:52;;;;;;;8.88;5.80;;;;;;;;;;10522014;22;20015;-90
2023/06/25 09:20:07;;;;;;;7.32;5.72;;;;;;;;;;10497102;22;20030;-88
2023/06/25 09:39:19;;;;;;;8.85;6.28;;;;;;;;;;10501506;22;20019;-90
2023/06/25 09:58:08;;;;;;;8.27;5.30;;;;;;;;;;10510404;22;20018;-89
2023/06/25 10:02:22;;;;;;;8.93;5.75;;;;;;;;;;10434531;22;20034;-89
2023/06/25 10:16:06;;;;;;;8.25;5.22;;;;;;;;;;10441933;22;20045;-93
2023/06/25 10:20:46;;;;;;;7.63;5.45;;;;;;;;;;10382863;22;20042;-93
2023/06/25 10:30:10;;;;;;;9.95;5.47;;;;;;;;;;10470747;22;20027;-93
2023/06/25 10:38:27;;;;;;;6.43;4.70;;;;;;;;;;10444086;22;20046;-94
2023/06/25 10:42:40;;;;;;;7.18;5.43;;;;;;;;;;10515904;22;20018;-93
2023/06/25 10:46:45;;;;;;;10.10;5.00;;;;;;;;;;10500508;22;20026;-94
2023/06/25 10:55:26;;;;;;;7.75;5.18;;;;;;;;;;10500087;22;20021;-93
2023/06/25 10:59:31;;;;;;;9.65;5.32;;;;;;;;;;10470889;22;20033;-92
2023/06/25 11:03:38;;;;;;;8.27;5.43;;;;;;;;;;10499383;22;20019;-92
2023/06/25 11:07:45;;;;;;;9.02;5.03;;;;;;;;;;10496679;22;20044;-93
2023/06/25 11:12:02;;;;;;;10.27;5.60;;;;;;;;;;10517830;22;20018;-93
2023/06/25 11:16:11;;;;;;;9.05;5.82;;;;;;;;;;10517598;22;20407;-92
2023/06/25 11:20:15;;;;;;;7.78;5.72;;;;;;;;;;10492813;22;20026;-92
2023/06/25 11:24:19;;;;;;;9.13;5.30;;;;;;;;;;10493111;22;20022;-93
2023/06/25 11:28:24;;;;;;;8.05;5.30;;;;;;;;;;10490437;22;20046;-93
2023/06/25 11:32:30;;;;;;;9.75;6.05;;;;;;;;;;10494711;22;20022;-92
2023/06/25 11:36:33;;;;;;;8.00;5.53;;;;;;;;;;10494199;22;20449;-91
2023/06/25 11:40:38;;;;;;;8.73;5.18;;;;;;;;;;10495300;22;20471;-93
2023/06/25 11:44:43;;;;;;;10.15;5.72;;;;;;;;;;10468427;22;20014;-93
2023/06/25 11:48:49;;;;;;;8.82;5.07;;;;;;;;;;10498557;22;20015;-93
2023/06/25 11:52:54;;;;;;;8.65;4.80;;;;;;;;;;10468422;22;20052;-93
2023/06/25 11:56:57;;;;;;;9.45;5.40;;;;;;;;;;10495157;22;20022;-94
2023/06/25 12:01:02;;;;;;;8.95;4.90;;;;;;;;;;10495097;22;20050;-91
2023/06/25 12:05:06;;;;;;;7.28;5.22;;;;;;;;;;10512005;22;20048;-93
2023/06/25 12:09:09;;;;;;;7.03;5.05;;;;;;;;;;10494536;22;20381;-93
2023/06/25 12:13:12;;;;;;;8.38;5.55;;;;;;;;;;10494812;22;20022;-92
2023/06/25 12:17:17;;;;;;;8.18;5.30;;;;;;;;;;10493884;22;20015;-92
2023/06/25 12:21:20;;;;;;;7.43;5.45;;;;;;;;;;10494366;22;20324;-91
2023/06/25 12:25:24;;;;;;;9.13;5.53;;;;;;;;;;10494215;22;20019;-92
2023/06/25 12:29:27;;;;;;;8.10;5.60;;;;;;;;;;10493941;22;20120;-93
2023/06/25 12:33:32;;;;;;;6.93;4.78;;;;;;;;;;10493986;22;20058;-94
2023/06/25 12:37:35;;;;;;;7.15;5.22;;;;;;;;;;10493738;22;20014;-91
2023/06/25 12:41:38;;;;;;;7.00;5.13;;;;;;;;;;10493689;22;20019;-92
2023/06/25 12:45:41;;;;;;;8.13;4.65;;;;;;;;;;10494235;22;20347;-91
2023/06/25 12:49:45;;;;;;;10.27;5.15;;;;;;;;;;10493987;22;20021;-91
2023/06/25 12:53:49;;;;;;;9.45;4.95;;;;;;;;;;10493462;22;20431;-92
2023/06/25 12:57:52;;;;;;;7.32;5.20;;;;;;;;;;10494092;22;20076;-93
2023/06/25 13:01:56;;;;;;;7.07;4.78;;;;;;;;;;10493728;22;20023;-91
2023/06/25 13:06:00;;;;;;;8.00;4.80;;;;;;;;;;10493242;22;20022;-91
2023/06/25 13:10:04;;;;;;;8.00;5.15;;;;;;;;;;10493182;22;20060;-92
2023/06/25 13:14:07;;;;;;;7.47;4.72;;;;;;;;;;10492437;22;20045;-91
2023/06/25 13:18:10;;;;;;;6.50;5.15;;;;;;;;;;10492492;22;20014;-88
2023/06/25 13:22:15;;;;;;;9.75;5.03;;;;;;;;;;10492897;22;20019;-88
2023/06/25 13:26:20;;;;;;;7.78;4.75;;;;;;;;;;10494681;22;20038;-88
2023/06/25 13:30:25;;;;;;;9.27;5.30;;;;;;;;;;10513047;22;20019;-90
2023/06/25 13:34:29;;;;;;;8.23;5.30;;;;;;;;;;10495094;22;20021;-91
2023/06/25 13:38:34;;;;;;;7.82;5.28;;;;;;;;;;10492169;22;20060;-88
2023/06/25 13:42:36;;;;;;;9.30;5.40;;;;;;;;;;10464604;22;20057;-87
2023/06/25 13:46:39;;;;;;;8.70;5.05;;;;;;;;;;10492104;22;20019;-88
2023/06/25 13:50:42;;;;;;;7.47;5.18;;;;;;;;;;10492106;22;20022;-89
2023/06/25 13:54:46;;;;;;;7.05;5.47;;;;;;;;;;10491975;22;20098;-91
2023/06/25 13:58:49;;;;;;;13.00;5.47;;;;;;;;;;10491492;22;20015;-87
2023/06/25 14:02:53;;;;;;;9.73;5.60;;;;;;;;;;10491697;22;20010;-88
2023/06/25 14:06:56;;;;;;;9.48;5.50;;;;;;;;;;10491544;22;20038;-88
2023/06/25 14:11:00;;;;;;;10.07;5.30;;;;;;;;;;10491656;22;20324;-88
2023/06/25 14:15:03;;;;;;;9.57;5.47;;;;;;;;;;10491609;22;20070;-89
2023/06/25 14:19:06;;;;;;;7.60;5.88;;;;;;;;;;10491595;22;20022;-89
2023/06/25 14:23:09;;;;;;;9.40;5.10;;;;;;;;;;10491501;22;20025;-88
2023/06/25 14:27:14;;;;;;;9.13;5.22;;;;;;;;;;10463310;22;20381;-88
2023/06/25 14:31:17;;;;;;;9.85;5.63;;;;;;;;;;10491090;22;20023;-88
2023/06/25 14:35:20;;;;;;;9.20;5.50;;;;;;;;;;10491128;22;20051;-89
2023/06/25 14:39:23;;;;;;;8.68;5.60;;;;;;;;;;10491563;22;20434;-89
2023/06/25 14:43:28;;;;;;;8.65;5.70;;;;;;;;;;10491372;22;20025;-89
2023/06/25 14:47:30;;;;;;;8.93;5.85;;;;;;;;;;10491133;22;20019;-89
2023/06/25 14:51:33;;;;;;;15.30;6.72;;;;;;;;;;10489554;22;20014;-89
2023/06/25 14:55:36;;;;;;;15.82;7.22;;;;;;;;;;10489826;22;20060;-96
2023/06/25 14:59:41;;;;;;;12.63;7.97;;;;;;;;;;10492911;22;20096;-90
2023/06/25 15:03:45;;;;;;;16.45;8.70;;;;;;;;;;10492361;22;20022;-91
2023/06/25 15:07:49;;;;;;;12.38;7.70;;;;;;;;;;10493466;22;20467;-91
2023/06/25 15:12:01;;;;;;;14.73;10.10;;;;;;;;;;10492553;22;20439;-95
2023/06/25 15:16:07;;;;;;;17.45;12.50;;;;;;;;;;10506675;22;20018;-89
2023/06/25 15:41:26;;;;;;;12.77;9.30;;;;;;;;;;10276733;22;20084;-88
2023/06/25 15:45:30;;;;;;;15.88;10.57;;;;;;;;;;10275817;23;20032;-89
2023/06/25 15:49:33;;;;;;;14.20;8.73;;;;;;;;;;10275904;23;20348;-90
2023/06/25 15:53:36;;;;;;;14.02;9.93;;;;;;;;;;10275670;23;20031;-89
2023/06/25 15:57:40;;;;;;;17.02;9.95;;;;;;;;;;10275310;23;20044;-89
2023/06/25 16:01:43;;;;;;;17.08;10.15;;;;;;;;;;10360439;22;20019;-89
2023/06/25 16:05:46;;;;;;;15.48;9.88;;;;;;;;;;10435627;22;20046;-89
2023/06/25 16:09:49;;;;;;;14.75;10.07;;;;;;;;;;10435923;22;20097;-88
2023/06/25 16:13:54;;;;;;;14.70;9.32;;;;;;;;;;10435336;22;20078;-88
2023/06/25 16:17:57;;;;;;;14.07;9.38;;;;;;;;;;10435806;22;20376;-89
2023/06/25 16:22:00;;;;;;;15.23;9.70;;;;;;;;;;10435666;22;20039;-88
2023/06/25 16:26:05;;;;;;;14.20;8.88;;;;;;;;;;10406823;22;20023;-89
2023/06/25 16:30:11;;;;;;;12.35;8.77;;;;;;;;;;10407219;22;20015;-88
2023/06/25 16:34:14;;;;;;;16.42;9.77;;;;;;;;;;10452880;22;20039;-88
2023/06/25 16:38:17;;;;;;;14.10;8.57;;;;;;;;;;10435252;22;20015;-89
2023/06/25 16:42:20;;;;;;;12.70;9.48;;;;;;;;;;10486463;22;20023;-91
2023/06/25 16:46:25;;;;;;;12.02;7.97;;;;;;;;;;10488001;22;20026;-90
2023/06/25 16:50:28;;;;;;;12.90;8.68;;;;;;;;;;10487732;22;20080;-91
2023/06/25 16:54:30;;;;;;;13.43;9.65;;;;;;;;;;10486020;22;20030;-90
2023/06/25 16:58:34;;;;;;;15.20;9.27;;;;;;;;;;10485352;22;20019;-90
2023/06/25 17:02:40;;;;;;;13.13;9.38;;;;;;;;;;10487123;22;20018;-90
2023/06/25 17:06:43;;;;;;;12.07;8.73;;;;;;;;;;10504710;22;20018;-91
2023/06/25 17:10:46;;;;;;;13.13;9.63;;;;;;;;;;10487405;22;20019;-90
2023/06/25 17:14:49;;;;;;;11.57;8.80;;;;;;;;;;10486664;22;20057;-90
2023/06/25 17:18:53;;;;;;;14.02;9.32;;;;;;;;;;10487084;22;20023;-89
2023/06/25 17:22:57;;;;;;;14.20;10.10;;;;;;;;;;10486929;22;20049;-90
2023/06/25 17:27:01;;;;;;;16.67;11.50;;;;;;;;;;10486634;22;20041;-91
2023/06/25 17:31:04;;;;;;;16.77;11.32;;;;;;;;;;10487181;22;20018;-90
2023/06/25 17:35:10;;;;;;;12.68;9.23;;;;;;;;;;10487030;22;20426;-90
2023/06/25 17:39:13;;;;;;;15.73;10.10;;;;;;;;;;10458923;22;20076;-89
2023/06/25 17:43:19;;;;;;;18.42;9.63;;;;;;;;;;10486839;22;20018;-90
2023/06/25 17:47:22;;;;;;;14.98;10.30;;;;;;;;;;10458690;22;20069;-90
2023/06/25 17:51:26;;;;;;;14.85;11.02;;;;;;;;;;10486851;22;20022;-90
2023/06/25 17:55:30;;;;;;;14.32;10.60;;;;;;;;;;10460504;22;20162;-90
2023/06/25 17:59:33;;;;;;;15.45;10.90;;;;;;;;;;10489851;22;20050;-90
2023/06/25 18:03:37;;;;;;;13.98;10.57;;;;;;;;;;10499204;22;20435;-89
2023/06/25 18:07:41;;;;;;;16.63;11.50;;;;;;;;;;10490983;22;20022;-91
2023/06/25 18:11:44;;;;;;;20.05;13.50;;;;;;;;;;10491902;22;20019;-89
2023/06/25 18:15:48;;;;;;;19.17;13.43;;;;;;;;;;10491085;22;20022;-91
2023/06/25 18:19:51;;;;;;;19.85;13.63;;;;;;;;;;10492348;22;20053;-94
2023/06/25 18:24:02;;;;;;;18.83;13.50;;;;;;;;;;10465249;22;20458;-94
2023/06/25 18:28:05;;;;;;;20.20;14.05;;;;;;;;;;10464263;22;20446;-90
2023/06/25 18:32:10;;;;;;;19.25;14.48;;;;;;;;;;10463819;22;20015;-90
2023/06/25 18:36:13;;;;;;;23.15;13.93;;;;;;;;;;10480959;22;20015;-95
2023/06/25 18:40:23;;;;;;;20.33;14.75;;;;;;;;;;10492855;22;20075;-89
2023/06/25 18:44:26;;;;;;;27.88;16.52;;;;;;;;;;10464331;22;20018;-89
2023/06/25 18:48:30;;;;;;;26.13;16.63;;;;;;;;;;10491234;22;20019;-90
2023/06/25 18:52:34;;;;;;;22.90;15.25;;;;;;;;;;10464315;22;20015;-90
2023/06/25 18:56:41;;;;;;;30.45;17.20;;;;;;;;;;10463311;22;20046;-91
2023/06/25 19:00:45;;;;;;;23.33;15.50;;;;;;;;;;10507167;22;20014;-93
2023/06/25 19:04:50;;;;;;;24.17;15.90;;;;;;;;;;10491397;22;20018;-91
2023/06/25 19:08:53;;;;;;;25.33;16.67;;;;;;;;;;10490474;22;20018;-89
2023/06/25 19:12:59;;;;;;;24.90;16.13;;;;;;;;;;10490831;22;20025;-90
2023/06/25 19:17:09;;;;;;;29.85;18.65;;;;;;;;;;10506076;22;20027;-88
2023/06/25 19:21:14;;;;;;;26.42;16.15;;;;;;;;;;10492021;22;20011;-91
2023/06/25 19:25:20;;;;;;;31.38;18.25;;;;;;;;;;10490271;22;20462;-90
2023/06/25 19:29:25;;;;;;;28.70;16.30;;;;;;;;;;10508157;22;20026;-90
2023/06/25 19:33:29;;;;;;;29.55;17.60;;;;;;;;;;10507859;22;20018;-89
2023/06/25 19:37:33;;;;;;;38.38;21.83;;;;;;;;;;10493032;22;20336;-90
2023/06/25 19:41:39;;;;;;;36.08;20.63;;;;;;;;;;10493836;22;20090;-89
2023/06/25 19:45:49;;;;;;;43.25;21.98;;;;;;;;;;10511175;22;20019;-89
2023/06/25 19:49:54;;;;;;;49.83;24.63;;;;;;;;;;10466263;22;20098;-89
2023/06/25 19:54:00;;;;;;;42.75;22.13;;;;;;;;;;10511141;22;20025;-89
2023/06/25 19:58:06;;;;;;;53.05;25.50;;;;;;;;;;10466120;22;20015;-88
2023/06/25 20:02:11;;;;;;;66.43;28.15;;;;;;;;;;10511691;22;20439;-87
2023/06/25 20:06:15;;;;;;;55.65;25.33;;;;;;;;;;10493577;22;20015;-87
2023/06/25 20:10:19;;;;;;;49.83;24.80;;;;;;;;;;10493628;22;20443;-88
2023/06/25 20:14:23;;;;;;;42.53;21.95;;;;;;;;;;10493644;22;20351;-88
2023/06/25 20:18:28;;;;;;;38.65;20.60;;;;;;;;;;10493579;22;20038;-88
2023/06/25 20:22:32;;;;;;;57.30;24.17;;;;;;;;;;10493470;22;20026;-88
2023/06/25 20:26:36;;;;;;;49.33;23.20;;;;;;;;;;10493898;22;20018;-88
2023/06/25 20:30:41;;;;;;;50.08;24.02;;;;;;;;;;10493328;22;20428;-89
2023/06/25 20:34:47;;;;;;;43.50;21.83;;;;;;;;;;10511012;22;20026;-93
2023/06/25 20:38:50;;;;;;;52.05;21.70;;;;;;;;;;10492910;22;20018;-89
2023/06/25 20:42:53;;;;;;;38.08;19.13;;;;;;;;;;10493099;22;20496;-89
2023/06/25 20:46:59;;;;;;;42.60;21.13;;;;;;;;;;10492675;22;20561;-88
2023/06/25 20:51:04;;;;;;;48.38;21.85;;;;;;;;;;10510311;22;20015;-89
2023/06/25 20:55:11;;;;;;;44.38;20.85;;;;;;;;;;10510332;22;20443;-88
2023/06/25 20:59:18;;;;;;;72.25;28.90;;;;;;;;;;10465609;22;20026;-89
2023/06/25 21:03:21;;;;;;;92.55;35.38;;;;;;;;;;10510413;22;20075;-89
2023/06/25 21:07:26;;;;;;;48.50;23.45;;;;;;;;;;10465663;22;20022;-89
2023/06/25 21:11:30;;;;;;;50.72;22.05;;;;;;;;;;10492377;22;20022;-88
2023/06/25 21:15:33;;;;;;;41.50;19.65;;;;;;;;;;10492459;22;20050;-87
2023/06/25 21:19:36;;;;;;;38.20;19.42;;;;;;;;;;10492484;22;20015;-88
2023/06/25 21:23:40;;;;;;;35.05;18.77;;;;;;;;;;10492615;22;20071;-88
2023/06/25 21:27:43;;;;;;;45.35;19.48;;;;;;;;;;10464660;22;20324;-88
2023/06/25 21:31:46;;;;;;;43.33;19.20;;;;;;;;;;10492359;22;20042;-88
2023/06/25 21:35:48;;;;;;;44.72;18.63;;;;;;;;;;10492336;22;20069;-88
2023/06/25 21:39:53;;;;;;;37.53;18.55;;;;;;;;;;10491905;22;20023;-89
2023/06/25 21:43:56;;;;;;;37.17;19.70;;;;;;;;;;10491983;22;20019;-89
2023/06/25 21:47:59;;;;;;;42.50;18.52;;;;;;;;;;10492341;22;20474;-91
2023/06/25 21:52:09;;;;;;;33.35;18.50;;;;;;;;;;10492123;22;20023;-89
2023/06/25 21:56:13;;;;;;;38.03;17.80;;;;;;;;;;10464229;22;20022;-88
2023/06/25 22:00:17;;;;;;;35.92;17.15;;;;;;;;;;10491809;22;20433;-90
2023/06/25 22:04:20;;;;;;;44.20;19.55;;;;;;;;;;10464027;22;20095;-89
2023/06/25 22:08:24;;;;;;;42.20;19.40;;;;;;;;;;10491919;22;20338;-90
2023/06/25 22:12:31;;;;;;;49.55;21.58;;;;;;;;;;10491980;22;20019;-90
2023/06/25 22:16:34;;;;;;;44.92;21.52;;;;;;;;;;10491791;22;20372;-90
2023/06/25 22:20:37;;;;;;;33.60;17.83;;;;;;;;;;10491497;22;20470;-88
2023/06/25 22:24:40;;;;;;;42.03;18.67;;;;;;;;;;10491689;22;20071;-89
2023/06/25 22:28:44;;;;;;;38.42;18.55;;;;;;;;;;10491496;22;20022;-89
2023/06/25 22:32:48;;;;;;;40.35;18.58;;;;;;;;;;10491508;22;20023;-90
2023/06/25 22:36:51;;;;;;;51.03;19.50;;;;;;;;;;10491348;22;20014;-89
2023/06/25 22:40:54;;;;;;;41.03;19.85;;;;;;;;;;10491160;22;20050;-88
2023/06/25 22:44:59;;;;;;;38.67;18.48;;;;;;;;;;10491227;22;20039;-89
2023/06/25 22:49:02;;;;;;;38.17;17.17;;;;;;;;;;10490966;22;20440;-88
2023/06/25 22:53:07;;;;;;;37.20;18.33;;;;;;;;;;10491040;22;20030;-90
2023/06/25 22:57:10;;;;;;;38.33;17.50;;;;;;;;;;10463159;22;20045;-89
2023/06/25 23:01:14;;;;;;;32.72;17.52;;;;;;;;;;10491025;22;20015;-89
2023/06/25 23:05:17;;;;;;;34.95;17.77;;;;;;;;;;10491135;22;20339;-89
2023/06/25 23:09:20;;;;;;;38.47;18.90;;;;;;;;;;10490761;22;20038;-89
2023/06/25 23:13:23;;;;;;;34.90;17.95;;;;;;;;;;10490748;22;20064;-91
2023/06/25 23:17:28;;;;;;;40.47;17.17;;;;;;;;;;10490700;22;20022;-89
2023/06/25 23:21:31;;;;;;;28.35;15.70;;;;;;;;;;10491406;22;20090;-89
2023/06/25 23:25:37;;;;;;;32.55;16.30;;;;;;;;;;10490608;22;20026;-89
2023/06/25 23:29:39;;;;;;;32.60;16.80;;;;;;;;;;10463277;22;20019;-90
2023/06/25 23:33:43;;;;;;;36.33;16.63;;;;;;;;;;10490749;22;20105;-89
2023/06/25 23:37:46;;;;;;;34.33;16.40;;;;;;;;;;10490528;22;20049;-89
2023/06/25 23:41:49;;;;;;;36.92;18.17;;;;;;;;;;10490548;22;20099;-90
2023/06/25 23:45:52;;;;;;;37.95;18.48;;;;;;;;;;10490556;22;20407;-89
2023/06/25 23:49:59;;;;;;;37.90;17.83;;;;;;;;;;10490460;22;20019;-90
2023/06/25 23:54:02;;;;;;;35.40;16.92;;;;;;;;;;10490419;22;20030;-89
2023/06/25 23:58:05;;;;;;;40.15;17.85;;;;;;;;;;10490056;22;20026;-89
